createdAt,value
2017-11-22T00:00:15.686Z,7.17
2017-11-22T00:02:43.223Z,7.03
2017-11-22T00:05:10.749Z,6.95
2017-11-22T00:07:38.264Z,6.98
2017-11-22T00:10:06.070Z,6.86
2017-11-22T00:12:34.452Z,6.85
2017-11-22T00:15:01.961Z,6.89
2017-11-22T00:17:29.518Z,6.87
2017-11-22T00:19:57.030Z,6.92
2017-11-22T00:22:24.539Z,6.94
2017-11-22T00:24:52.247Z,6.89
2017-11-22T00:27:19.805Z,6.99
2017-11-22T00:29:47.363Z,7.00
2017-11-22T00:32:14.910Z,7.05
2017-11-22T00:34:42.481Z,7.08
2017-11-22T00:37:09.992Z,7.15
2017-11-22T00:39:37.532Z,7.19
2017-11-22T00:42:05.047Z,7.18
2017-11-22T00:44:32.615Z,7.17
2017-11-22T00:47:00.174Z,7.17
2017-11-22T00:49:27.735Z,7.23
2017-11-22T00:51:55.309Z,7.21
2017-11-22T00:54:23.031Z,7.26
2017-11-22T00:56:50.621Z,7.21
2017-11-22T00:59:18.175Z,7.20
2017-11-22T01:01:45.914Z,7.29
2017-11-22T01:04:13.423Z,7.25
2017-11-22T01:06:40.938Z,7.23
2017-11-22T01:09:08.615Z,7.20
2017-11-22T01:11:36.196Z,7.25
2017-11-22T01:14:03.708Z,7.26
2017-11-22T01:16:31.471Z,7.26
2017-11-22T01:18:59.157Z,7.25
2017-11-22T01:21:26.668Z,7.22
2017-11-22T01:23:54.481Z,7.06
2017-11-22T01:26:21.996Z,6.94
2017-11-22T01:28:49.513Z,7.12
2017-11-22T01:31:17.260Z,7.10
2017-11-22T01:33:44.768Z,7.08
2017-11-22T01:36:12.301Z,7.03
2017-11-22T01:38:40.119Z,7.03
2017-11-22T01:41:07.633Z,7.10
2017-11-22T01:43:35.164Z,7.12
2017-11-22T01:46:02.824Z,7.09
2017-11-22T01:48:30.380Z,6.97
2017-11-22T01:50:59.507Z,7.06
2017-11-22T01:53:27.256Z,7.07
2017-11-22T01:55:54.799Z,7.11
2017-11-22T01:58:22.311Z,7.15
2017-11-22T02:00:53.807Z,7.17
2017-11-22T02:03:21.366Z,7.19
2017-11-22T02:05:48.875Z,7.22
2017-11-22T02:08:16.568Z,7.22
2017-11-22T02:10:44.079Z,7.29
2017-11-22T02:13:11.587Z,7.28
2017-11-22T02:15:39.182Z,7.34
2017-11-22T02:18:06.726Z,7.29
2017-11-22T02:20:34.303Z,7.33
2017-11-22T02:23:02.554Z,7.34
2017-11-22T02:25:30.068Z,7.35
2017-11-22T02:27:57.579Z,7.37
2017-11-22T02:30:25.131Z,7.40
2017-11-22T02:32:52.996Z,7.34
2017-11-22T02:35:20.508Z,7.10
2017-11-22T02:37:48.042Z,7.36
2017-11-22T02:40:15.567Z,7.11
2017-11-22T02:42:43.100Z,7.30
2017-11-22T02:45:10.656Z,7.37
2017-11-22T02:47:38.163Z,7.32
2017-11-22T02:50:05.708Z,7.34
2017-11-22T02:52:33.448Z,7.36
2017-11-22T02:55:00.961Z,7.15
2017-11-22T02:57:28.491Z,7.12
2017-11-22T02:59:56.247Z,7.24
2017-11-22T03:02:23.760Z,7.24
2017-11-22T03:04:51.279Z,7.24
2017-11-22T03:07:19.208Z,7.17
2017-11-22T03:09:46.716Z,6.95
2017-11-22T03:12:14.231Z,7.09
2017-11-22T03:14:42.055Z,7.14
2017-11-22T03:17:09.558Z,7.11
2017-11-22T03:19:37.071Z,7.08
2017-11-22T03:22:04.791Z,7.07
2017-11-22T03:24:32.300Z,7.03
2017-11-22T03:26:59.828Z,7.06
2017-11-22T03:29:27.647Z,7.04
2017-11-22T03:31:55.163Z,7.03
2017-11-22T03:34:22.677Z,6.97
2017-11-22T03:36:50.249Z,6.94
2017-11-22T03:39:17.763Z,6.86
2017-11-22T03:41:45.284Z,6.85
2017-11-22T03:44:13.028Z,6.83
2017-11-22T03:46:40.608Z,6.84
2017-11-22T03:49:08.146Z,6.76
2017-11-22T03:51:41.410Z,6.80
2017-11-22T03:54:08.912Z,6.82
2017-11-22T03:56:36.561Z,6.79
2017-11-22T03:59:04.426Z,6.77
2017-11-22T04:01:46.647Z,6.76
2017-11-22T04:04:16.925Z,6.73
2017-11-22T04:06:44.434Z,6.72
2017-11-22T04:09:11.976Z,6.71
2017-11-22T04:11:39.711Z,6.66
2017-11-22T04:14:07.224Z,6.62
2017-11-22T04:16:34.730Z,6.63
2017-11-22T04:19:08.039Z,6.60
2017-11-22T04:21:35.700Z,6.56
2017-11-22T04:24:03.213Z,6.58
2017-11-22T04:26:30.755Z,6.52
2017-11-22T04:28:58.281Z,6.49
2017-11-22T04:31:25.797Z,6.45
2017-11-22T04:33:53.346Z,6.46
2017-11-22T04:36:20.858Z,6.46
2017-11-22T04:38:48.437Z,6.44
2017-11-22T04:41:15.979Z,6.41
2017-11-22T04:43:43.526Z,6.41
2017-11-22T04:46:11.047Z,6.39
2017-11-22T04:48:38.631Z,6.38
2017-11-22T04:51:06.206Z,6.39
2017-11-22T04:53:33.728Z,6.37
2017-11-22T04:56:01.604Z,6.33
2017-11-22T04:58:29.115Z,6.29
2017-11-22T05:00:56.646Z,6.28
2017-11-22T05:03:24.305Z,6.26
2017-11-22T05:05:52.595Z,6.26
2017-11-22T05:08:20.112Z,6.22
2017-11-22T05:10:47.774Z,6.17
2017-11-22T05:13:15.288Z,6.18
2017-11-22T05:15:42.805Z,6.18
2017-11-22T05:18:10.563Z,6.21
2017-11-22T05:20:38.071Z,6.22
2017-11-22T05:23:05.598Z,6.20
2017-11-22T05:25:33.342Z,6.16
2017-11-22T05:28:00.852Z,6.16
2017-11-22T05:30:28.362Z,6.15
2017-11-22T05:32:56.260Z,6.20
2017-11-22T05:35:23.804Z,5.99
2017-11-22T05:37:51.312Z,6.04
2017-11-22T05:40:18.855Z,6.00
2017-11-22T05:42:46.378Z,5.90
2017-11-22T05:45:13.891Z,5.94
2017-11-22T05:47:41.702Z,5.90
2017-11-22T05:50:09.273Z,5.85
2017-11-22T05:52:36.820Z,5.90
2017-11-22T05:55:04.360Z,5.96
2017-11-22T05:57:31.882Z,5.88
2017-11-22T05:59:59.392Z,5.95
2017-11-22T06:02:27.337Z,5.95
2017-11-22T06:04:54.851Z,5.93
2017-11-22T06:07:22.363Z,5.95
2017-11-22T06:09:51.064Z,5.98
2017-11-22T06:12:18.622Z,5.99
2017-11-22T06:14:46.137Z,6.06
2017-11-22T06:17:14.050Z,6.05
2017-11-22T06:19:41.628Z,6.15
2017-11-22T06:22:09.172Z,6.17
2017-11-22T06:24:36.932Z,6.17
2017-11-22T06:27:04.453Z,6.20
2017-11-22T06:29:31.971Z,6.18
2017-11-22T06:31:59.799Z,6.13
2017-11-22T06:34:27.474Z,6.13
2017-11-22T06:36:55.033Z,6.11
2017-11-22T06:39:24.540Z,6.13
2017-11-22T06:41:52.109Z,6.16
2017-11-22T06:44:19.674Z,6.20
2017-11-22T06:46:47.222Z,6.22
2017-11-22T06:49:14.774Z,6.14
2017-11-22T06:51:42.284Z,5.88
2017-11-22T06:54:10.077Z,6.01
2017-11-22T06:56:37.587Z,6.00
2017-11-22T06:59:05.113Z,6.01
2017-11-22T07:01:32.979Z,5.76
2017-11-22T07:04:00.479Z,5.79
2017-11-22T07:06:27.995Z,5.97
2017-11-22T07:08:55.968Z,5.92
2017-11-22T07:11:23.523Z,5.94
2017-11-22T07:13:51.031Z,5.94
2017-11-22T07:16:24.888Z,6.15
2017-11-22T07:18:52.411Z,6.21
2017-11-22T07:21:19.933Z,6.26
2017-11-22T07:23:47.573Z,6.32
2017-11-22T07:26:15.617Z,6.37
2017-11-22T07:28:43.144Z,6.44
2017-11-22T07:31:10.735Z,6.52
2017-11-22T07:33:38.247Z,6.61
2017-11-22T07:36:11.299Z,6.67
2017-11-22T07:38:38.811Z,6.78
2017-11-22T07:41:07.358Z,6.81
2017-11-22T07:43:35.183Z,6.87
2017-11-22T07:46:02.691Z,6.95
2017-11-22T07:48:30.221Z,7.02
2017-11-22T07:54:01.899Z,7.37
2017-11-22T07:56:29.659Z,7.43
2017-11-22T07:58:57.177Z,7.47
2017-11-22T08:01:24.779Z,7.49
2017-11-22T08:03:58.173Z,7.49
2017-11-22T08:06:25.682Z,7.53
2017-11-22T08:08:53.192Z,7.70
2017-11-22T08:11:21.694Z,7.78
2017-11-22T08:13:49.229Z,7.95
2017-11-22T08:16:16.846Z,8.15
2017-11-22T08:18:44.402Z,8.26
2017-11-22T08:21:11.920Z,8.34
2017-11-22T08:23:39.466Z,8.50
2017-11-22T08:26:07.024Z,8.73
2017-11-22T08:28:34.544Z,9.03
2017-11-22T08:31:02.062Z,9.31
2017-11-22T08:33:30.430Z,9.49
2017-11-22T08:35:57.980Z,9.71
2017-11-22T08:38:25.537Z,9.99
2017-11-22T08:40:53.202Z,10.05
2017-11-22T08:43:26.405Z,10.32
2017-11-22T08:45:54.155Z,10.69
2017-11-22T08:48:21.728Z,10.95
2017-11-22T08:50:49.265Z,11.12
2017-11-22T08:53:16.831Z,11.25
2017-11-22T08:55:50.038Z,11.33
2017-11-22T08:58:17.591Z,11.45
2017-11-22T09:00:45.139Z,11.47
2017-11-22T09:03:15.447Z,11.80
2017-11-22T09:05:49.055Z,12.01
2017-11-22T09:08:16.631Z,12.26
2017-11-22T09:10:44.185Z,12.60
2017-11-22T09:13:17.380Z,15.59
2017-11-22T09:15:44.932Z,19.79
2017-11-22T09:18:13.198Z,22.15
2017-11-22T09:20:40.758Z,23.00
2017-11-22T09:23:08.331Z,24.23
2017-11-22T09:25:36.755Z,25.86
2017-11-22T09:28:04.382Z,26.44
2017-11-22T09:30:31.934Z,26.63
2017-11-22T09:33:14.415Z,28.26
2017-11-22T09:35:42.403Z,28.10
2017-11-22T09:38:09.981Z,28.97
2017-11-22T09:40:37.547Z,28.35
2017-11-22T09:43:05.075Z,27.80
2017-11-22T09:45:32.595Z,28.46
2017-11-22T09:48:00.314Z,29.69
2017-11-22T09:50:28.275Z,30.11
2017-11-22T09:52:55.791Z,30.55
2017-11-22T09:55:23.389Z,29.55
2017-11-22T09:57:50.904Z,29.90
2017-11-22T10:00:18.427Z,29.84
2017-11-22T10:02:46.343Z,28.67
2017-11-22T10:05:13.863Z,28.39
2017-11-22T10:07:41.389Z,27.68
2017-11-22T10:10:08.962Z,27.25
2017-11-22T10:12:36.507Z,28.40
2017-11-22T10:15:04.066Z,29.33
2017-11-22T10:17:32.559Z,28.91
2017-11-22T10:20:03.904Z,30.79
2017-11-22T10:22:37.088Z,30.05
2017-11-22T10:25:10.544Z,30.15
2017-11-22T10:27:48.691Z,30.98
2017-11-22T10:30:17.273Z,28.77
2017-11-22T10:32:49.658Z,29.58
2017-11-22T10:35:17.206Z,28.86
2017-11-22T10:37:44.780Z,28.37
2017-11-22T10:40:12.327Z,29.10
2017-11-22T10:42:39.834Z,29.37
2017-11-22T10:45:07.420Z,29.98
2017-11-22T10:47:38.994Z,30.26
2017-11-22T10:50:10.241Z,30.40
2017-11-22T10:52:42.221Z,30.22
2017-11-22T10:57:52.049Z,33.01
2017-11-22T11:00:19.788Z,32.57
2017-11-22T11:02:49.536Z,31.39
2017-11-22T11:05:20.372Z,32.17
2017-11-22T11:07:49.476Z,32.08
2017-11-22T11:10:17.748Z,33.08
2017-11-22T11:12:46.230Z,33.32
2017-11-22T11:15:16.556Z,34.34
2017-11-22T11:17:44.225Z,35.22
2017-11-22T11:20:21.667Z,32.84
2017-11-22T11:22:52.543Z,33.18
2017-11-22T11:25:28.255Z,32.01
2017-11-22T11:27:56.868Z,32.61
2017-11-22T11:30:36.305Z,32.56
2017-11-22T11:33:06.842Z,32.34
2017-11-22T11:35:47.003Z,31.66
2017-11-22T11:38:15.363Z,32.16
2017-11-22T11:40:44.779Z,33.36
2017-11-22T11:43:17.261Z,34.34
2017-11-22T11:45:46.398Z,34.25
2017-11-22T11:48:16.364Z,34.30
2017-11-22T11:50:46.480Z,32.99
2017-11-22T11:53:14.246Z,33.63
2017-11-22T11:55:44.977Z,34.31
2017-11-22T11:58:14.926Z,34.57
2017-11-22T12:00:42.478Z,34.27
2017-11-22T12:03:10.295Z,33.98
2017-11-22T12:05:37.811Z,34.56
2017-11-22T12:08:05.327Z,34.43
2017-11-22T12:10:33.002Z,33.21
2017-11-22T12:13:00.563Z,34.37
2017-11-22T12:15:28.129Z,35.13
2017-11-22T12:17:55.880Z,34.15
2017-11-22T12:20:23.398Z,30.49
2017-11-22T12:22:57.191Z,28.25
2017-11-22T12:25:24.703Z,25.93
2017-11-22T12:27:54.200Z,23.88
2017-11-22T12:30:21.767Z,22.89
2017-11-22T12:32:49.547Z,22.23
2017-11-22T12:35:17.089Z,21.33
2017-11-22T12:37:44.827Z,20.67
2017-11-22T12:40:12.344Z,20.28
2017-11-22T12:42:39.855Z,19.93
2017-11-22T12:45:07.528Z,19.71
2017-11-22T12:47:35.601Z,19.48
2017-11-22T12:50:03.159Z,19.25
2017-11-22T12:52:30.742Z,18.85
2017-11-22T12:54:58.259Z,18.75
2017-11-22T12:57:25.770Z,18.49
2017-11-22T12:59:53.497Z,18.40
2017-11-22T13:02:21.073Z,18.51
2017-11-22T13:04:48.616Z,18.63
2017-11-22T13:07:16.255Z,18.60
2017-11-22T13:09:43.777Z,18.53
2017-11-22T13:12:11.304Z,18.51
2017-11-22T13:14:38.867Z,18.48
2017-11-22T13:17:06.396Z,18.43
2017-11-22T13:19:33.917Z,18.41
2017-11-22T13:22:01.629Z,18.47
2017-11-22T13:24:29.142Z,18.43
2017-11-22T13:26:56.665Z,18.32
2017-11-22T13:29:24.390Z,18.15
2017-11-22T13:31:51.902Z,18.30
2017-11-22T13:34:19.424Z,18.29
2017-11-22T13:36:47.089Z,18.31
2017-11-22T13:39:14.649Z,18.97
2017-11-22T13:41:45.993Z,19.45
2017-11-22T13:44:13.770Z,19.24
2017-11-22T13:46:41.337Z,19.54
2017-11-22T13:49:08.854Z,19.91
2017-11-22T13:51:36.539Z,19.86
2017-11-22T13:54:04.059Z,19.26
2017-11-22T13:56:31.586Z,19.03
2017-11-22T13:58:59.130Z,18.71
2017-11-22T14:01:26.672Z,18.46
2017-11-22T14:03:54.232Z,18.10
2017-11-22T14:06:21.997Z,18.06
2017-11-22T14:08:49.556Z,17.93
2017-11-22T14:11:17.115Z,17.69
2017-11-22T14:13:45.083Z,17.76
2017-11-22T14:16:12.643Z,17.66
2017-11-22T14:18:40.202Z,17.55
2017-11-22T14:21:07.760Z,17.40
2017-11-22T14:23:35.319Z,17.35
2017-11-22T14:26:02.882Z,17.22
2017-11-22T14:28:30.447Z,17.12
2017-11-22T14:30:57.998Z,17.08
2017-11-22T14:33:25.555Z,16.98
2017-11-22T14:35:53.135Z,16.90
2017-11-22T14:38:20.674Z,16.81
2017-11-22T14:40:48.233Z,16.72
2017-11-22T14:43:15.926Z,16.60
2017-11-22T14:45:43.435Z,16.51
2017-11-22T14:48:10.963Z,16.42
2017-11-22T14:50:38.685Z,16.32
2017-11-22T14:53:06.644Z,16.22
2017-11-22T14:55:34.203Z,16.16
2017-11-22T14:58:01.779Z,16.08
2017-11-22T15:00:29.321Z,15.98
2017-11-22T15:02:56.967Z,15.89
2017-11-22T15:05:24.849Z,15.77
2017-11-22T15:07:52.511Z,15.72
2017-11-22T15:10:20.171Z,15.65
2017-11-22T15:12:48.556Z,15.58
2017-11-22T15:15:16.136Z,15.40
2017-11-22T15:17:43.769Z,15.28
2017-11-22T15:20:11.742Z,15.07
2017-11-22T15:22:39.507Z,14.96
2017-11-22T15:25:07.802Z,14.88
2017-11-22T15:27:35.617Z,14.75
2017-11-22T15:30:03.312Z,14.67
2017-11-22T15:32:30.955Z,14.57
2017-11-22T15:34:58.730Z,14.47
2017-11-22T15:37:26.599Z,14.32
2017-11-22T15:39:54.147Z,14.23
2017-11-22T15:42:21.899Z,14.18
2017-11-22T15:44:49.419Z,14.09
2017-11-22T15:47:16.944Z,14.00
2017-11-22T15:49:44.500Z,13.85
2017-11-22T15:52:12.044Z,13.75
2017-11-22T15:54:39.613Z,13.65
2017-11-22T15:57:07.175Z,13.57
2017-11-22T15:59:34.832Z,13.49
2017-11-22T16:02:02.392Z,13.39
2017-11-22T16:04:30.257Z,13.27
2017-11-22T16:06:58.024Z,13.16
2017-11-22T16:09:25.583Z,13.08
2017-11-22T16:11:53.142Z,13.04
2017-11-22T16:14:20.806Z,12.99
2017-11-22T16:16:48.364Z,12.90
2017-11-22T16:19:16.226Z,13.01
2017-11-22T16:21:43.786Z,13.12
2017-11-22T16:24:11.370Z,13.15
2017-11-22T16:26:39.317Z,13.25
2017-11-22T16:29:06.894Z,13.14
2017-11-22T16:31:34.432Z,13.11
2017-11-22T16:34:02.987Z,13.09
2017-11-22T16:36:30.686Z,12.88
2017-11-22T16:38:58.243Z,12.74
2017-11-22T16:41:26.101Z,12.77
2017-11-22T16:43:53.683Z,12.67
2017-11-22T16:46:21.632Z,12.61
2017-11-22T16:48:49.230Z,12.67
2017-11-22T16:51:16.943Z,12.56
2017-11-22T16:53:44.614Z,12.50
2017-11-22T16:56:12.599Z,12.50
2017-11-22T16:58:40.295Z,12.43
2017-11-22T17:01:07.912Z,12.52
2017-11-22T17:03:35.933Z,12.44
2017-11-22T17:06:03.638Z,12.44
2017-11-22T17:08:31.306Z,12.46
2017-11-22T17:10:59.139Z,12.31
2017-11-22T17:13:26.827Z,12.38
2017-11-22T17:15:54.587Z,12.29
2017-11-22T17:18:22.382Z,12.25
2017-11-22T17:20:50.155Z,12.17
2017-11-22T17:23:17.920Z,12.04
2017-11-22T17:25:45.647Z,11.95
2017-11-22T17:28:13.171Z,12.02
2017-11-22T17:30:40.970Z,11.89
2017-11-22T17:33:08.559Z,11.80
2017-11-22T17:35:36.522Z,11.73
2017-11-22T17:38:04.160Z,11.89
2017-11-22T17:40:32.230Z,11.75
2017-11-22T17:42:59.891Z,11.71
2017-11-22T17:45:27.598Z,11.69
2017-11-22T17:47:55.323Z,11.63
2017-11-22T17:50:24.422Z,11.40
2017-11-22T17:52:51.970Z,11.28
2017-11-22T17:55:24.651Z,11.33
2017-11-22T17:57:52.312Z,11.38
2017-11-22T18:00:19.972Z,11.24
2017-11-22T18:02:47.755Z,11.14
2017-11-22T18:05:15.921Z,11.12
2017-11-22T18:07:43.647Z,11.10
2017-11-22T18:10:11.176Z,10.96
2017-11-22T18:12:38.695Z,10.95
2017-11-22T18:15:06.244Z,10.84
2017-11-22T18:17:33.809Z,11.02
2017-11-22T18:20:01.367Z,10.90
2017-11-22T18:22:29.131Z,10.72
2017-11-22T18:24:56.693Z,10.66
2017-11-22T18:27:24.359Z,10.50
2017-11-22T18:29:52.629Z,10.57
2017-11-22T18:32:20.227Z,10.58
2017-11-22T18:34:47.750Z,10.93
2017-11-22T18:37:17.490Z,11.04
2017-11-22T18:39:45.124Z,11.08
2017-11-22T18:42:12.885Z,10.92
2017-11-22T18:44:40.855Z,10.85
2017-11-22T18:47:08.731Z,10.99
2017-11-22T18:49:37.610Z,10.89
2017-11-22T18:52:05.374Z,10.73
2017-11-22T18:54:33.133Z,10.76
2017-11-22T18:57:01.011Z,10.82
2017-11-22T18:59:29.380Z,10.82
2017-11-22T19:01:58.072Z,10.81
2017-11-22T19:04:25.845Z,10.82
2017-11-22T19:06:53.804Z,10.93
2017-11-22T19:09:21.644Z,10.85
2017-11-22T19:11:49.531Z,10.81
2017-11-22T19:14:17.805Z,10.51
2017-11-22T19:16:46.213Z,10.47
2017-11-22T19:19:13.785Z,10.49
2017-11-22T19:21:41.515Z,10.44
2017-11-22T19:24:09.680Z,10.28
2017-11-22T19:26:37.444Z,10.01
2017-11-22T19:29:05.317Z,10.29
2017-11-22T19:31:32.897Z,10.56
2017-11-22T19:34:00.625Z,10.30
2017-11-22T19:36:28.636Z,10.58
2017-11-22T19:38:56.368Z,10.46
2017-11-22T19:41:24.027Z,10.39
2017-11-22T19:43:52.055Z,10.35
2017-11-22T19:46:19.720Z,10.62
2017-11-22T19:48:49.673Z,10.54
2017-11-22T19:51:17.869Z,10.88
2017-11-22T19:53:46.126Z,10.96
2017-11-22T19:56:14.762Z,11.07
2017-11-22T19:58:42.895Z,11.12
2017-11-22T20:01:10.748Z,11.23
2017-11-22T20:03:38.511Z,11.28
2017-11-22T20:06:07.354Z,11.41
2017-11-22T20:08:41.569Z,11.00
2017-11-22T20:11:09.236Z,10.91
2017-11-22T20:13:37.041Z,10.91
2017-11-22T20:16:05.723Z,11.18
2017-11-22T20:18:33.671Z,11.13
2017-11-22T20:21:01.357Z,11.04
2017-11-22T20:23:29.223Z,10.88
2017-11-22T20:25:57.494Z,10.76
2017-11-22T20:28:25.267Z,10.94
2017-11-22T20:30:53.046Z,10.79
2017-11-22T20:33:21.100Z,10.74
2017-11-22T20:35:48.966Z,10.82
2017-11-22T20:38:16.550Z,10.81
2017-11-22T20:40:44.704Z,10.76
2017-11-22T20:43:12.984Z,10.97
2017-11-22T20:45:40.532Z,10.84
2017-11-22T20:48:08.604Z,10.92
2017-11-22T20:50:36.192Z,10.75
2017-11-22T20:53:03.945Z,10.82
2017-11-22T20:55:32.631Z,10.72
2017-11-22T20:58:00.378Z,10.86
2017-11-22T21:00:28.244Z,10.88
2017-11-22T21:02:56.109Z,10.72
2017-11-22T21:05:24.384Z,10.76
2017-11-22T21:07:52.674Z,10.41
2017-11-22T21:10:20.659Z,10.56
2017-11-22T21:12:48.495Z,10.54
2017-11-22T21:15:16.261Z,10.66
2017-11-22T21:17:44.537Z,10.55
2017-11-22T21:20:12.402Z,10.38
2017-11-22T21:22:40.269Z,10.24
2017-11-22T21:25:08.451Z,10.04
2017-11-22T21:27:36.081Z,10.14
2017-11-22T21:30:03.876Z,9.90
2017-11-22T21:32:32.154Z,9.92
2017-11-22T21:34:59.905Z,10.02
2017-11-22T21:37:27.679Z,10.02
2017-11-22T21:39:56.062Z,10.28
2017-11-22T21:42:23.812Z,10.30
2017-11-22T21:44:51.475Z,10.38
2017-11-22T21:47:19.316Z,10.24
2017-11-22T21:49:46.823Z,10.74
2017-11-22T21:52:14.398Z,10.41
2017-11-22T21:54:42.530Z,10.15
2017-11-22T21:57:10.147Z,10.14
2017-11-22T21:59:37.687Z,10.10
2017-11-22T22:02:05.521Z,10.09
2017-11-22T22:04:33.089Z,9.92
2017-11-22T22:07:00.633Z,10.01
2017-11-22T22:09:28.193Z,9.97
2017-11-22T22:11:55.698Z,9.92
2017-11-22T22:14:23.208Z,10.06
2017-11-22T22:16:50.751Z,10.19
2017-11-22T22:19:18.451Z,10.34
2017-11-22T22:21:45.966Z,10.34
2017-11-22T22:24:13.791Z,10.41
2017-11-22T22:26:41.308Z,10.39
2017-11-22T22:29:08.828Z,10.32
2017-11-22T22:31:36.382Z,10.30
2017-11-22T22:34:03.892Z,10.23
2017-11-22T22:36:31.450Z,10.24
2017-11-22T22:38:59.018Z,10.36
2017-11-22T22:41:26.529Z,10.42
2017-11-22T22:43:54.046Z,10.15
2017-11-22T22:46:21.590Z,9.97
2017-11-22T22:48:49.137Z,10.20
2017-11-22T22:51:16.697Z,9.97
2017-11-22T22:53:44.440Z,9.96
2017-11-22T22:56:11.948Z,9.82
2017-11-22T22:58:39.454Z,9.93
2017-11-22T23:01:07.036Z,9.81
2017-11-22T23:03:34.595Z,9.81
2017-11-22T23:06:03.282Z,9.87
2017-11-22T23:08:31.603Z,10.06
2017-11-22T23:11:00.327Z,9.88
2017-11-22T23:13:29.337Z,9.79
2017-11-22T23:15:57.402Z,9.72
2017-11-22T23:18:25.786Z,9.75
2017-11-22T23:20:53.353Z,9.86
2017-11-22T23:23:21.740Z,9.61
2017-11-22T23:25:49.282Z,9.65
2017-11-22T23:28:16.949Z,9.67
2017-11-22T23:30:45.157Z,9.73
2017-11-22T23:33:12.752Z,9.70
2017-11-22T23:35:43.864Z,9.68
2017-11-22T23:38:11.431Z,9.86
2017-11-22T23:40:38.935Z,9.76
2017-11-22T23:43:07.700Z,9.57
2017-11-22T23:45:35.215Z,9.57
2017-11-22T23:48:02.742Z,9.65
2017-11-22T23:50:30.711Z,9.54
2017-11-22T23:52:58.479Z,9.53
2017-11-22T23:55:26.034Z,9.54
2017-11-22T23:57:53.797Z,9.52
